Time;durP1;ratioP1;P1;durP2;ratioP2;P2;SDS_P1;SDS_P2;PMS_P1;PMS_P2;Temp;Humidity;BMP_temperature;BMP_pressure;BME280_temperature;BME280_humidity;BME280_pressure;Samples;Min_cycle;Max_cycle;Signal;HPM_P1;HPM_P2
2022/10/25 00:01:57;;;;;;;16.20;10.30;;;;;;;10.82;87.69;101114.65;105501;1273;62201;-66
2022/10/25 00:04:26;;;;;;;16.90;10.00;;;;;;;10.85;87.61;101113.40;105601;1267;73896;-67
2022/10/25 00:06:55;;;;;;;14.40;9.50;;;;;;;10.86;87.64;101113.86;105633;1261;61499;-66
2022/10/25 00:09:24;;;;;;;16.10;10.50;;;;;;;10.89;87.46;101115.23;105816;1269;68979;-66
2022/10/25 00:11:52;;;;;;;20.10;10.60;;;;;;;10.94;88.00;101116.69;105476;1274;72747;-67
2022/10/25 00:14:21;;;;;;;15.40;9.30;;;;;;;10.98;87.49;101118.34;105499;1261;59166;-70
2022/10/25 00:16:50;;;;;;;15.80;9.70;;;;;;;11.02;87.17;101119.23;105543;1275;58391;-68
2022/10/25 00:19:19;;;;;;;13.70;9.60;;;;;;;11.05;87.10;101116.09;105384;1263;62420;-68
2022/10/25 00:21:48;;;;;;;14.20;9.50;;;;;;;11.07;87.08;101114.52;105475;1267;60790;-68
2022/10/25 00:24:17;;;;;;;15.20;9.90;;;;;;;11.10;87.41;101119.56;105326;1270;70706;-68
2022/10/25 00:26:45;;;;;;;15.00;10.50;;;;;;;11.10;87.44;101119.19;105315;1275;64939;-67
2022/10/25 00:29:16;;;;;;;14.90;10.10;;;;;;;11.12;87.78;101118.93;105333;1270;59175;-67
2022/10/25 00:31:45;;;;;;;15.00;10.00;;;;;;;11.14;87.65;101116.52;105409;1266;59191;-66
2022/10/25 00:34:14;;;;;;;18.70;9.30;;;;;;;11.14;87.51;101116.66;105272;1263;73181;-67
2022/10/25 00:36:42;;;;;;;18.20;10.50;;;;;;;11.18;87.73;101108.40;105340;1265;72935;-65
2022/10/25 00:39:11;;;;;;;16.80;10.90;;;;;;;11.21;87.52;101105.73;105296;1262;60656;-66
2022/10/25 00:41:40;;;;;;;17.60;11.00;;;;;;;11.25;87.45;101103.71;105367;1274;73697;-66
2022/10/25 00:44:39;;;;;;;16.30;10.10;;;;;;;11.28;87.37;101103.53;105418;1270;63834;-66
2022/10/25 00:47:20;;;;;;;16.20;10.80;;;;;;;11.28;87.30;101103.70;105457;1267;58982;-68
2022/10/25 00:49:58;;;;;;;14.80;9.70;;;;;;;11.30;87.40;101102.89;105345;1263;73019;-70
2022/10/25 00:52:31;;;;;;;15.40;10.00;;;;;;;11.31;86.93;101100.33;105361;1267;71314;-66
2022/10/25 00:55:01;;;;;;;16.80;11.20;;;;;;;11.34;87.33;101099.63;105388;1270;70752;-66
2022/10/25 00:57:40;;;;;;;16.20;10.40;;;;;;;11.35;87.62;101100.23;105074;1264;73519;-66
2022/10/25 01:00:10;;;;;;;18.40;11.20;;;;;;;11.36;87.26;101100.52;105337;1266;62076;-66
2022/10/25 01:02:38;;;;;;;15.40;10.50;;;;;;;11.38;86.71;101098.58;105505;1263;61456;-66
2022/10/25 01:05:08;;;;;;;16.10;10.00;;;;;;;11.36;87.32;101095.45;105417;1272;74359;-65
2022/10/25 01:07:37;;;;;;;17.90;11.50;;;;;;;11.35;87.52;101095.19;105438;1260;73443;-66
2022/10/25 01:10:07;;;;;;;14.40;9.90;;;;;;;11.33;88.01;101089.92;105495;1260;60538;-66
2022/10/25 01:12:35;;;;;;;17.10;10.60;;;;;;;11.31;88.12;101092.16;105591;1270;63512;-69
2022/10/25 01:15:05;;;;;;;17.10;11.00;;;;;;;11.30;88.16;101093.13;105500;1260;60710;-67
2022/10/25 01:17:55;;;;;;;19.50;11.30;;;;;;;11.30;88.14;101086.11;105534;1260;60419;-67
2022/10/25 01:20:57;;;;;;;19.10;11.50;;;;;;;11.29;88.43;101076.79;105589;1264;74263;-68
2022/10/25 01:23:45;;;;;;;17.20;11.90;;;;;;;11.29;88.63;101075.59;105567;1263;61537;-66
2022/10/25 01:26:31;;;;;;;17.10;11.90;;;;;;;11.28;88.54;101072.48;105426;1267;60227;-66
2022/10/25 01:29:16;;;;;;;18.70;12.10;;;;;;;11.31;88.31;101078.55;105580;1263;72920;-68
2022/10/25 01:31:55;;;;;;;19.10;11.50;;;;;;;11.31;88.16;101071.60;105450;1263;59029;-67
2022/10/25 01:34:56;;;;;;;18.70;12.30;;;;;;;11.30;88.71;101071.80;105433;1260;61160;-67
2022/10/25 01:37:33;;;;;;;19.40;11.90;;;;;;;11.30;88.91;101068.14;105497;1272;62872;-68
2022/10/25 01:40:21;;;;;;;18.70;12.60;;;;;;;11.31;88.77;101070.17;105375;1267;60736;-69
2022/10/25 01:43:08;;;;;;;19.40;12.00;;;;;;;11.32;89.38;101069.96;105418;1270;69994;-68
2022/10/25 01:45:45;;;;;;;16.80;11.90;;;;;;;11.32;89.54;101070.13;105488;1261;74535;-69
2022/10/25 01:48:32;;;;;;;19.10;12.00;;;;;;;11.33;89.53;101072.14;105318;1265;62486;-68
2022/10/25 01:51:11;;;;;;;18.40;12.70;;;;;;;11.34;89.57;101071.36;105401;1265;62229;-68
2022/10/25 01:53:48;;;;;;;17.10;11.40;;;;;;;11.34;89.42;101070.64;105563;1271;63946;-68
2022/10/25 01:56:42;;;;;;;18.80;11.60;;;;;;;11.34;88.70;101068.02;105608;1264;61474;-68
2022/10/25 01:59:18;;;;;;;18.20;11.80;;;;;;;11.32;88.86;101065.94;105468;1259;69787;-69
2022/10/25 02:02:10;;;;;;;21.20;12.00;;;;;;;11.29;89.46;101063.90;105532;1270;63451;-66
2022/10/25 02:04:42;;;;;;;16.30;11.80;;;;;;;11.28;89.47;101058.17;105534;1270;62687;-69
2022/10/25 02:07:38;;;;;;;17.60;11.80;;;;;;;11.27;89.56;101055.64;105650;1271;60342;-69
2022/10/25 02:10:35;;;;;;;18.90;12.10;;;;;;;11.24;89.03;101058.46;105492;1257;73391;-68
2022/10/25 02:13:11;;;;;;;18.40;11.70;;;;;;;11.22;89.78;101054.62;105590;1261;62813;-68
2022/10/25 02:15:47;;;;;;;18.40;12.00;;;;;;;11.21;89.62;101054.82;105579;1271;60664;-68
2022/10/25 02:18:22;;;;;;;17.10;12.80;;;;;;;11.20;90.01;101050.91;105568;1269;73487;-67
2022/10/25 02:20:53;;;;;;;16.60;11.30;;;;;;;11.19;90.03;101046.95;105620;1255;58777;-66
2022/10/25 02:23:23;;;;;;;20.90;12.60;;;;;;;11.19;89.83;101046.80;105597;1261;61007;-66
2022/10/25 02:25:53;;;;;;;20.60;12.10;;;;;;;11.18;89.93;101048.41;105601;1260;63229;-67
2022/10/25 02:28:25;;;;;;;17.20;11.60;;;;;;;11.18;90.44;101047.89;105644;1259;62368;-67
2022/10/25 02:30:56;;;;;;;20.20;12.60;;;;;;;11.20;90.19;101048.67;105598;1272;59165;-67
2022/10/25 02:33:25;;;;;;;19.00;12.20;;;;;;;11.20;90.01;101045.55;105601;1264;73721;-67
2022/10/25 02:36:23;;;;;;;16.20;10.90;;;;;;;11.18;90.03;101043.23;105467;1267;62524;-67
2022/10/25 02:38:53;;;;;;;18.00;12.00;;;;;;;11.15;90.28;101041.11;105367;1260;59074;-69
2022/10/25 02:41:22;;;;;;;18.60;11.80;;;;;;;11.13;90.41;101039.17;105622;1272;73443;-65
2022/10/25 02:43:51;;;;;;;18.80;12.70;;;;;;;11.12;90.43;101038.92;105641;1260;62135;-67
2022/10/25 02:46:22;;;;;;;18.30;12.40;;;;;;;11.11;90.87;101033.73;105521;1270;70183;-66
2022/10/25 02:48:51;;;;;;;19.50;13.20;;;;;;;11.11;90.86;101031.84;105409;1273;72955;-67
2022/10/25 02:51:20;;;;;;;23.90;13.90;;;;;;;11.12;91.14;101038.73;105600;1264;62348;-67
2022/10/25 02:53:49;;;;;;;23.30;13.10;;;;;;;11.13;91.40;101032.18;105511;1272;61005;-67
2022/10/25 02:56:21;;;;;;;19.40;13.90;;;;;;;11.14;91.90;101033.16;105646;1268;64080;-67
2022/10/25 02:58:54;;;;;;;18.80;14.10;;;;;;;11.14;92.02;101036.83;105594;1261;61492;-66
2022/10/25 03:01:24;;;;;;;24.00;14.50;;;;;;;11.15;91.84;101038.51;105614;1269;69692;-67
2022/10/25 03:03:53;;;;;;;22.50;14.60;;;;;;;11.18;91.60;101042.34;105676;1267;71722;-66
2022/10/25 03:06:21;;;;;;;18.00;13.30;;;;;;;11.19;91.09;101042.48;105468;1264;59000;-67
2022/10/25 03:08:50;;;;;;;19.60;13.30;;;;;;;11.20;90.57;101040.28;105645;1264;59027;-68
2022/10/25 03:11:19;;;;;;;20.00;13.90;;;;;;;11.21;90.83;101038.15;105612;1264;62942;-68
2022/10/25 03:13:48;;;;;;;18.70;14.60;;;;;;;11.22;91.03;101041.36;105575;1264;72406;-67
2022/10/25 03:16:16;;;;;;;18.30;13.40;;;;;;;11.22;91.69;101039.79;105621;1272;71091;-68
2022/10/25 03:18:45;;;;;;;23.50;14.50;;;;;;;11.22;91.41;101034.05;105591;1266;72542;-68
2022/10/25 03:21:14;;;;;;;19.60;13.80;;;;;;;11.22;91.29;101032.27;105768;1267;58978;-70
2022/10/25 03:23:42;;;;;;;20.80;13.30;;;;;;;11.22;91.53;101026.01;105633;1263;60955;-67
2022/10/25 03:26:11;;;;;;;23.10;14.10;;;;;;;11.21;91.96;101023.48;105663;1271;62914;-67
2022/10/25 03:28:40;;;;;;;23.50;14.70;;;;;;;11.21;92.08;101015.99;105623;1264;70225;-69
2022/10/25 03:31:14;;;;;;;22.60;15.00;;;;;;;11.20;92.25;101009.95;105652;1260;69739;-74
2022/10/25 03:33:43;;;;;;;18.20;14.50;;;;;;;11.14;93.64;101000.42;105577;1270;62760;-66
2022/10/25 03:36:13;;;;;;;24.60;14.90;;;;;;;11.16;92.87;100995.94;105506;1263;62273;-70
2022/10/25 03:38:42;;;;;;;20.90;15.00;;;;;;;11.15;93.10;100992.65;105598;1271;60649;-67
2022/10/25 03:41:10;;;;;;;24.50;16.00;;;;;;;11.17;92.34;100989.23;105309;1267;73305;-67
2022/10/25 03:43:39;;;;;;;23.00;16.50;;;;;;;11.15;94.05;100983.98;105671;1267;60961;-69
2022/10/25 03:46:08;;;;;;;27.00;16.70;;;;;;;11.17;94.54;100978.09;105704;1264;71055;-68
2022/10/25 03:48:36;;;;;;;29.90;16.80;;;;;;;11.19;94.62;100976.58;105658;1272;74491;-69
2022/10/25 03:51:05;;;;;;;27.50;16.90;;;;;;;11.20;94.57;100971.28;105690;1267;58761;-69
2022/10/25 03:53:34;;;;;;;22.90;15.50;;;;;;;11.23;93.67;100969.83;105829;1265;59155;-67
2022/10/25 03:56:03;;;;;;;22.60;15.50;;;;;;;11.28;93.20;100966.99;105774;1264;63129;-70
2022/10/25 03:58:32;;;;;;;22.40;15.60;;;;;;;11.27;93.27;100962.17;105680;1270;60836;-69
2022/10/25 04:01:01;;;;;;;24.90;15.80;;;;;;;11.28;93.17;100957.75;105687;1260;59442;-68
2022/10/25 04:03:30;;;;;;;22.00;16.20;;;;;;;11.27;93.75;100955.45;105678;1267;72721;-68
2022/10/25 04:05:58;;;;;;;28.30;15.80;;;;;;;11.28;92.85;100963.50;105566;1272;62879;-67
2022/10/25 04:08:27;;;;;;;25.60;15.50;;;;;;;11.29;93.13;100965.72;105650;1262;59089;-66
2022/10/25 04:10:56;;;;;;;24.00;15.60;;;;;;;11.27;93.19;100965.88;105598;1264;73024;-66
2022/10/25 04:13:24;;;;;;;25.90;17.10;;;;;;;11.28;93.16;100956.90;105576;1264;73013;-68
2022/10/25 04:15:53;;;;;;;21.90;15.90;;;;;;;11.27;92.98;100958.67;105547;1264;61199;-67
2022/10/25 04:18:21;;;;;;;24.80;15.50;;;;;;;11.26;92.88;100963.80;105521;1268;73330;-67
2022/10/25 04:20:50;;;;;;;23.20;16.00;;;;;;;11.26;92.99;100964.70;105593;1260;62171;-65
2022/10/25 04:23:19;;;;;;;23.50;15.70;;;;;;;11.25;93.03;100960.11;105529;1261;58783;-67
2022/10/25 04:25:48;;;;;;;21.90;17.10;;;;;;;11.24;93.05;100956.83;105501;1272;73882;-69
2022/10/25 04:28:17;;;;;;;26.60;17.70;;;;;;;11.23;92.86;100950.27;105670;1268;62838;-68
2022/10/25 04:30:45;;;;;;;24.40;16.80;;;;;;;11.20;93.68;100953.49;105640;1263;70715;-69
2022/10/25 04:33:14;;;;;;;20.00;16.10;;;;;;;11.18;93.27;100957.96;105667;1271;64496;-68
2022/10/25 04:35:43;;;;;;;25.70;16.00;;;;;;;11.16;93.69;100960.02;105674;1267;59151;-72
2022/10/25 04:38:12;;;;;;;24.60;15.30;;;;;;;11.15;94.04;100962.37;105782;1264;59201;-70
2022/10/25 04:40:40;;;;;;;26.30;15.70;;;;;;;11.15;93.43;100957.81;105765;1263;74220;-77
2022/10/25 04:43:09;;;;;;;25.40;16.80;;;;;;;11.16;93.47;100958.99;105418;1266;61225;-70
2022/10/25 04:45:38;;;;;;;21.00;16.10;;;;;;;11.15;93.17;100961.29;105439;1256;68778;-69
2022/10/25 04:48:06;;;;;;;24.20;16.40;;;;;;;11.15;93.18;100956.41;105512;1262;73999;-69
2022/10/25 04:50:37;;;;;;;26.00;16.50;;;;;;;11.09;93.86;100954.90;105633;1271;58743;-68
2022/10/25 04:53:06;;;;;;;29.00;17.00;;;;;;;11.10;93.77;100954.65;105565;1263;60331;-69
2022/10/25 04:55:35;;;;;;;23.60;17.60;;;;;;;11.09;94.10;100954.38;105601;1274;72722;-69
2022/10/25 04:58:04;;;;;;;26.30;16.30;;;;;;;11.10;94.18;100954.84;105479;1271;72947;-70
2022/10/25 05:00:32;;;;;;;25.90;16.70;;;;;;;11.10;93.82;100957.13;105388;1272;70404;-70
2022/10/25 05:03:01;;;;;;;25.40;16.20;;;;;;;11.11;93.81;100957.58;105508;1260;63527;-69
2022/10/25 05:05:30;;;;;;;26.60;17.70;;;;;;;11.12;93.74;100955.27;105540;1263;58969;-66
2022/10/25 05:07:58;;;;;;;28.90;17.00;;;;;;;11.12;94.07;100954.39;105414;1256;60906;-68
2022/10/25 05:10:27;;;;;;;32.90;17.20;;;;;;;11.11;93.73;100953.02;105546;1258;63722;-68
2022/10/25 05:12:56;;;;;;;30.80;17.90;;;;;;;11.10;93.43;100955.35;105497;1260;71911;-69
2022/10/25 05:15:24;;;;;;;54.80;20.70;;;;;;;11.10;93.51;100951.35;105565;1267;70416;-69
2022/10/25 05:17:58;;;;;;;33.20;17.40;;;;;;;11.10;93.12;100950.19;105559;1264;63435;-69
2022/10/25 05:20:28;;;;;;;26.30;15.90;;;;;;;11.08;93.24;100949.92;105597;1267;62406;-69
2022/10/25 05:22:56;;;;;;;26.40;16.90;;;;;;;11.09;92.94;100956.34;105560;1264;61315;-67
2022/10/25 05:25:25;;;;;;;25.30;15.90;;;;;;;11.10;92.92;100958.53;105614;1267;62963;-69
2022/10/25 05:27:54;;;;;;;28.30;17.50;;;;;;;11.12;92.84;100952.83;105513;1263;72032;-70
2022/10/25 05:30:22;;;;;;;34.70;17.60;;;;;;;11.12;92.78;100956.66;105539;1260;70141;-71
2022/10/25 05:32:51;;;;;;;33.50;17.40;;;;;;;11.12;92.99;100965.36;105443;1263;63978;-70
2022/10/25 05:35:20;;;;;;;26.90;15.70;;;;;;;11.12;92.83;100977.70;105622;1260;58821;-70
2022/10/25 05:37:48;;;;;;;29.90;17.70;;;;;;;11.10;92.85;100977.30;105689;1263;57359;-71
2022/10/25 05:40:17;;;;;;;32.60;17.00;;;;;;;11.09;93.15;100980.87;105612;1272;63138;-69
2022/10/25 05:42:47;;;;;;;32.70;17.80;;;;;;;11.09;92.83;100979.52;105390;1256;73217;-67
2022/10/25 05:45:16;;;;;;;31.30;18.80;;;;;;;11.08;93.09;100970.51;105404;1267;70269;-68
2022/10/25 05:47:45;;;;;;;37.10;19.30;;;;;;;11.09;93.06;100973.73;105400;1267;74415;-68
2022/10/25 05:50:13;;;;;;;31.10;18.20;;;;;;;11.10;92.58;100975.78;105441;1258;62780;-70
2022/10/25 05:52:43;;;;;;;35.00;17.10;;;;;;;11.12;92.92;100979.62;105469;1270;61590;-68
2022/10/25 05:55:12;;;;;;;27.30;18.70;;;;;;;11.15;93.45;100984.63;105241;1262;73507;-69
2022/10/25 05:57:41;;;;;;;34.40;18.50;;;;;;;11.20;93.26;100992.33;105397;1266;62351;-69
2022/10/25 06:00:11;;;;;;;26.70;17.00;;;;;;;11.28;92.80;101000.84;105536;1266;60118;-69
2022/10/25 06:02:40;;;;;;;28.90;18.20;;;;;;;11.38;92.50;101001.00;105608;1267;72181;-69
2022/10/25 06:05:08;;;;;;;28.80;18.30;;;;;;;11.47;92.24;100998.99;105476;1261;63520;-70
2022/10/25 06:07:37;;;;;;;32.90;17.30;;;;;;;11.57;91.49;101005.57;105539;1270;58920;-69
2022/10/25 06:10:06;;;;;;;29.00;16.20;;;;;;;11.72;90.64;101002.90;105560;1256;73705;-69
2022/10/25 06:12:38;;;;;;;28.80;18.20;;;;;;;11.81;90.11;101007.70;105535;1263;71022;-68
2022/10/25 06:15:08;;;;;;;33.00;17.30;;;;;;;11.85;89.65;101001.82;105484;1264;70996;-70
2022/10/25 06:17:37;;;;;;;29.00;17.00;;;;;;;11.96;89.00;100999.25;105443;1264;74016;-70
2022/10/25 06:20:08;;;;;;;33.90;18.10;;;;;;;12.13;87.86;100996.75;105437;1267;63818;-69
2022/10/25 06:22:36;;;;;;;24.20;15.90;;;;;;;12.27;86.59;101003.77;105383;1270;61507;-67
2022/10/25 06:25:06;;;;;;;29.60;16.90;;;;;;;12.43;85.35;101005.21;105390;1272;63063;-68
2022/10/25 06:27:35;;;;;;;26.10;16.00;;;;;;;12.62;84.66;101001.64;105381;1262;70571;-69
2022/10/25 06:30:05;;;;;;;26.00;15.80;;;;;;;12.70;84.23;100998.56;105392;1266;70248;-69
2022/10/25 06:32:35;;;;;;;26.80;16.00;;;;;;;12.86;82.82;100999.48;105435;1263;74574;-68
2022/10/25 06:35:05;;;;;;;28.30;15.90;;;;;;;12.98;82.13;100999.20;105436;1265;63852;-69
2022/10/25 06:37:34;;;;;;;32.10;16.80;;;;;;;13.16;81.80;100997.16;105417;1268;59129;-69
2022/10/25 06:40:04;;;;;;;23.50;15.70;;;;;;;13.23;80.27;100996.77;105524;1263;73802;-69
2022/10/25 06:42:32;;;;;;;31.70;15.30;;;;;;;13.35;80.06;100994.40;105605;1267;71613;-69
2022/10/25 06:45:02;;;;;;;23.20;15.40;;;;;;;13.52;79.55;100993.61;105546;1270;59814;-70
2022/10/25 06:47:31;;;;;;;26.40;14.30;;;;;;;13.61;78.91;100987.94;105645;1270;65638;-68
2022/10/25 06:49:59;;;;;;;22.10;13.90;;;;;;;13.62;77.14;100976.70;105529;1267;61400;-70
2022/10/25 06:52:28;;;;;;;27.30;13.40;;;;;;;13.74;77.50;100979.58;105593;1272;60980;-70
2022/10/25 06:54:57;;;;;;;33.10;14.90;;;;;;;13.75;76.50;100982.45;105551;1272;64259;-69
2022/10/25 06:57:26;;;;;;;24.70;14.50;;;;;;;13.88;76.13;100983.30;105419;1261;61837;-70
2022/10/25 06:59:55;;;;;;;22.80;15.50;;;;;;;13.93;75.35;100982.91;105516;1260;70749;-68
2022/10/25 07:02:23;;;;;;;20.60;14.00;;;;;;;14.05;74.90;100978.41;105625;1263;75076;-70
2022/10/25 07:04:52;;;;;;;24.90;14.30;;;;;;;14.08;74.82;100972.41;105572;1261;62902;-69
2022/10/25 07:07:21;;;;;;;27.20;15.30;;;;;;;14.07;74.66;100970.36;105616;1275;59070;-69
2022/10/25 07:09:50;;;;;;;26.40;14.60;;;;;;;14.17;74.37;100971.60;105592;1266;63100;-68
2022/10/25 07:12:18;;;;;;;38.50;16.00;;;;;;;14.18;73.74;100967.69;105599;1263;72372;-69
2022/10/25 07:14:47;;;;;;;30.70;15.20;;;;;;;14.29;74.71;100961.67;105629;1270;59979;-69
2022/10/25 07:17:16;;;;;;;29.60;16.00;;;;;;;14.22;74.76;100961.04;105616;1263;72384;-72
2022/10/25 07:19:44;;;;;;;31.90;16.40;;;;;;;14.28;74.47;100954.45;105588;1269;59105;-69
2022/10/25 07:22:13;;;;;;;26.20;14.80;;;;;;;14.25;74.45;100951.14;105170;1270;586170;-71
2022/10/25 07:24:42;;;;;;;20.40;13.90;;;;;;;14.43;73.77;100954.52;105576;1271;72580;-71
2022/10/25 07:27:10;;;;;;;19.80;14.30;;;;;;;14.45;73.29;100957.40;105500;1270;71759;-71
2022/10/25 07:29:39;;;;;;;23.50;14.10;;;;;;;14.52;73.12;100955.44;105642;1267;60163;-70
2022/10/25 07:32:09;;;;;;;24.00;14.20;;;;;;;14.49;73.18;100951.92;105627;1271;63847;-69
2022/10/25 07:34:38;;;;;;;29.60;16.30;;;;;;;14.57;73.26;100947.40;105544;1267;59158;-71
2022/10/25 07:37:07;;;;;;;23.00;15.30;;;;;;;14.61;73.05;100948.88;105540;1256;59910;-69
2022/10/25 07:39:36;;;;;;;25.60;15.40;;;;;;;14.66;72.69;100951.80;105583;1263;73084;-68
2022/10/25 07:42:05;;;;;;;22.60;13.90;;;;;;;14.65;73.02;100949.41;105644;1256;73390;-68
2022/10/25 07:44:33;;;;;;;21.80;14.00;;;;;;;14.66;72.95;100946.10;105594;1263;70712;-70
2022/10/25 07:47:02;;;;;;;23.50;14.70;;;;;;;14.65;72.61;100949.23;105573;1264;73301;-68
2022/10/25 07:49:31;;;;;;;32.70;14.30;;;;;;;14.68;73.04;100953.12;105610;1270;59097;-70
2022/10/25 07:52:00;;;;;;;27.00;15.00;;;;;;;14.81;72.80;100952.20;105613;1265;58410;-70
2022/10/25 07:54:28;;;;;;;27.00;15.80;;;;;;;15.01;72.24;100945.88;105592;1260;74410;-70
2022/10/25 07:56:57;;;;;;;27.60;15.60;;;;;;;15.12;71.66;100945.67;105621;1272;62115;-69
2022/10/25 07:59:26;;;;;;;32.60;16.00;;;;;;;15.23;70.78;100940.98;105575;1270;59292;-68
2022/10/25 08:01:55;;;;;;;27.10;17.20;;;;;;;15.38;70.58;100937.38;105599;1272;63426;-70
2022/10/25 08:04:24;;;;;;;32.60;18.40;;;;;;;15.52;70.06;100928.58;105525;1267;59043;-70
2022/10/25 08:06:53;;;;;;;30.40;16.10;;;;;;;15.48;70.18;100927.53;105520;1263;60431;-70
2022/10/25 08:09:21;;;;;;;25.90;15.60;;;;;;;15.56;69.66;100919.98;105515;1264;74462;-71
2022/10/25 08:12:05;;;;;;;27.40;16.20;;;;;;;15.59;69.35;100914.94;105589;1263;61510;-67
2022/10/25 08:14:34;;;;;;;24.80;15.60;;;;;;;15.74;68.85;100914.03;105559;1264;59492;-68
2022/10/25 08:17:08;;;;;;;28.00;13.90;;;;;;;15.91;67.79;100912.95;105547;1256;72892;-71
2022/10/25 08:19:37;;;;;;;25.70;13.90;;;;;;;15.97;67.13;100909.23;105455;1272;58877;-71
2022/10/25 08:22:06;;;;;;;22.90;15.20;;;;;;;16.13;67.23;100902.13;105514;1267;59194;-69
2022/10/25 08:24:37;;;;;;;21.50;13.40;;;;;;;16.31;66.61;100901.52;105677;1263;63164;-69
2022/10/25 08:27:06;;;;;;;20.30;14.10;;;;;;;16.36;66.09;100900.16;105773;1259;71048;-70
2022/10/25 08:29:35;;;;;;;27.20;14.90;;;;;;;16.40;66.37;100896.86;105775;1270;70512;-76
2022/10/25 08:32:04;;;;;;;25.60;15.30;;;;;;;16.41;66.25;100883.38;105611;1267;73362;-69
2022/10/25 08:34:33;;;;;;;27.30;14.10;;;;;;;16.58;65.74;100876.66;105605;1266;59971;-70
2022/10/25 08:37:01;;;;;;;22.00;15.60;;;;;;;16.59;65.85;100885.38;105440;1272;59163;-69
2022/10/25 08:39:30;;;;;;;28.30;15.30;;;;;;;16.71;65.96;100884.73;105506;1264;63130;-74
2022/10/25 08:42:01;;;;;;;23.60;14.10;;;;;;;16.98;66.12;100876.41;105621;1267;72650;-69
2022/10/25 08:44:38;;;;;;;25.00;14.90;;;;;;;17.14;66.06;100875.80;105571;1264;60220;-69
2022/10/25 08:47:20;;;;;;;24.30;16.00;;;;;;;17.08;64.14;100866.59;105599;1264;72947;-71
2022/10/25 08:49:56;;;;;;;23.40;15.50;;;;;;;17.28;63.47;100863.23;105552;1260;60224;-69
2022/10/25 08:52:36;;;;;;;27.40;16.90;;;;;;;17.39;63.21;100859.34;105522;1267;59823;-69
2022/10/25 08:55:34;;;;;;;21.70;15.50;;;;;;;17.46;63.03;100858.83;105594;1259;62828;-68
2022/10/25 08:58:22;;;;;;;23.80;15.40;;;;;;;17.65;62.42;100858.37;105408;1259;61558;-71
2022/10/25 09:00:51;;;;;;;25.50;15.60;;;;;;;17.83;61.58;100858.52;105643;1265;68890;-70
2022/10/25 09:03:24;;;;;;;26.10;16.20;;;;;;;17.87;61.15;100856.11;105540;1259;74283;-68
2022/10/25 09:06:13;;;;;;;30.70;15.50;;;;;;;18.04;61.47;100861.29;105466;1266;58804;-69
2022/10/25 09:09:15;;;;;;;27.50;16.00;;;;;;;18.21;61.00;100862.06;105594;1266;61224;-70
2022/10/25 09:12:17;;;;;;;27.40;15.20;;;;;;;18.35;60.28;100856.70;105680;1260;63554;-68
2022/10/25 09:15:53;;;;;;;22.50;14.40;;;;;;;18.66;60.18;100856.88;105590;1263;71997;-71
2022/10/25 09:18:42;;;;;;;23.50;14.40;;;;;;;18.97;59.67;100858.95;105577;1268;71038;-75
2022/10/25 09:21:20;;;;;;;25.00;14.40;;;;;;;19.21;59.41;100844.84;105534;1275;73564;-70
2022/10/25 09:24:53;;;;;;;28.30;14.40;;;;;;;19.26;56.79;100839.38;105371;1267;58936;-70
2022/10/25 09:27:53;;;;;;;26.00;14.70;;;;;;;19.38;56.87;100842.16;104835;1276;59820;-69
2022/10/25 09:30:22;;;;;;;26.90;14.40;;;;;;;19.62;56.33;100842.80;105486;1263;73664;-69
2022/10/25 09:33:00;;;;;;;26.20;15.20;;;;;;;19.83;56.12;100840.52;105524;1264;72982;-68
2022/10/25 09:35:41;;;;;;;25.20;14.50;;;;;;;19.91;55.39;100841.05;105483;1261;62090;-67
2022/10/25 09:38:55;;;;;;;25.40;13.10;;;;;;;20.12;54.86;100835.17;105490;1260;73954;-66
2022/10/25 09:41:34;;;;;;;;;;;;;;;20.31;55.52;100838.14;105396;1271;58830;-69
2022/10/25 09:44:33;;;;;;;24.20;13.90;;;;;;;20.55;55.29;100836.88;105599;1265;57488;-68
2022/10/25 09:47:27;;;;;;;23.80;13.90;;;;;;;20.67;53.81;100830.61;105611;1266;63093;-70
2022/10/25 09:50:03;;;;;;;25.00;14.10;;;;;;;20.72;54.00;100821.89;105607;1264;61075;-71
2022/10/25 09:53:07;;;;;;;25.40;13.50;;;;;;;20.80;53.44;100818.84;105630;1270;59839;-71
2022/10/25 09:55:56;;;;;;;23.90;13.00;;;;;;;20.94;53.74;100810.02;105335;1272;74168;-73
2022/10/25 09:58:29;;;;;;;21.50;12.60;;;;;;;20.97;53.39;100797.61;105585;1261;59043;-71
2022/10/25 10:01:14;;;;;;;;;;;;;;;21.18;54.14;100794.91;105595;1265;60381;-71
2022/10/25 10:03:43;;;;;;;32.10;14.10;;;;;;;21.09;52.93;100789.53;105596;1268;63257;-70
2022/10/25 10:06:27;;;;;;;25.60;12.20;;;;;;;21.04;52.66;100786.98;105448;1273;72258;-69
2022/10/25 10:09:02;;;;;;;22.10;12.30;;;;;;;21.10;52.29;100782.80;105680;1272;59518;-69
2022/10/25 10:11:34;;;;;;;27.60;12.00;;;;;;;21.24;53.05;100783.02;105569;1262;63266;-72
2022/10/25 10:14:44;;;;;;;21.60;12.50;;;;;;;21.27;52.01;100782.80;105647;1272;58301;-70
2022/10/25 10:17:17;;;;;;;22.10;11.70;;;;;;;21.52;51.71;100778.09;105721;1265;57553;-68
2022/10/25 10:20:16;;;;;;;22.90;11.70;;;;;;;21.69;51.18;100778.23;105506;1266;63874;-66
2022/10/25 10:22:53;;;;;;;23.00;11.80;;;;;;;21.70;51.49;100773.55;105658;1263;62740;-70
2022/10/25 10:25:27;;;;;;;27.60;13.20;;;;;;;21.81;51.50;100773.99;105661;1261;59710;-69
2022/10/25 10:27:57;;;;;;;19.70;10.80;;;;;;;21.75;51.58;100771.04;105683;1259;73566;-67
2022/10/25 10:30:30;;;;;;;21.80;11.00;;;;;;;21.79;51.87;100775.51;105677;1259;59171;-65
2022/10/25 10:33:01;;;;;;;31.00;12.00;;;;;;;21.78;51.31;100773.49;105662;1263;60251;-67
2022/10/25 10:35:35;;;;;;;22.10;12.00;;;;;;;21.60;51.60;100776.48;105732;1264;62515;-69
2022/10/25 10:38:19;;;;;;;29.50;12.20;;;;;;;21.57;52.02;100779.35;105673;1264;61537;-67
2022/10/25 10:41:13;;;;;;;23.30;11.70;;;;;;;21.34;52.55;100776.85;105701;1260;60222;-69
2022/10/25 10:43:42;;;;;;;25.70;11.90;;;;;;;21.00;53.10;100770.91;105660;1272;63503;-71
2022/10/25 10:46:18;;;;;;;26.20;11.50;;;;;;;20.87;53.79;100764.67;105679;1264;60275;-73
2022/10/25 10:48:55;;;;;;;21.30;11.00;;;;;;;20.72;54.60;100763.33;105592;1266;59126;-70
2022/10/25 10:51:44;;;;;;;22.40;12.20;;;;;;;20.60;54.65;100760.85;105569;1261;62863;-70
2022/10/25 10:54:30;;;;;;;25.40;11.80;;;;;;;20.39;55.14;100760.86;105509;1261;62066;-72
2022/10/25 10:57:05;;;;;;;22.40;12.30;;;;;;;20.29;55.96;100761.80;105574;1265;68778;-73
2022/10/25 10:59:50;;;;;;;32.50;12.50;;;;;;;20.20;56.47;100758.96;105522;1265;63600;-68
2022/10/25 11:02:26;;;;;;;19.50;11.30;;;;;;;20.12;56.67;100762.01;105554;1260;58980;-66
2022/10/25 11:04:56;;;;;;;18.90;10.60;;;;;;;20.03;57.06;100763.53;105582;1272;60330;-71
2022/10/25 11:07:32;;;;;;;21.40;11.30;;;;;;;19.97;57.31;100759.04;105728;1272;62656;-70
2022/10/25 11:10:15;;;;;;;19.40;11.30;;;;;;;19.85;57.47;100753.44;105710;1267;72980;-70
2022/10/25 11:12:44;;;;;;;20.90;12.70;;;;;;;19.87;57.63;100755.73;105605;1264;59738;-68
2022/10/25 11:15:14;;;;;;;21.00;12.00;;;;;;;19.87;57.49;100753.15;105539;1272;63506;-71
2022/10/25 11:17:57;;;;;;;26.30;13.70;;;;;;;19.76;57.82;100757.74;105522;1265;60376;-70
2022/10/25 11:21:11;;;;;;;;;;;;;;;19.72;57.81;100759.91;105654;1267;59008;-70
2022/10/25 11:24:24;;;;;;;25.60;13.00;;;;;;;19.78;58.03;100757.52;105528;1263;63780;-69
2022/10/25 11:27:37;;;;;;;30.00;13.20;;;;;;;19.72;58.13;100758.15;105581;1263;61609;-69
2022/10/25 11:30:23;;;;;;;21.10;11.90;;;;;;;19.65;58.19;100759.22;105571;1263;60930;-66
2022/10/25 11:33:27;;;;;;;28.20;12.40;;;;;;;19.70;58.25;100755.21;105525;1264;72921;-67
2022/10/25 11:36:15;;;;;;;26.50;13.00;;;;;;;19.72;58.32;100745.95;105581;1272;61583;-71